Terminal Aerodrome Forecast
Issued by NWS

Current Version | Previous Version | Graphics & Text | Print | Product List | Glossary On
Versions: 1 2 3 4 5 6 7 8 9 10 11 12 13 14 15 16 17 18 19 20 21 22 23 24 25 26 27 28 29 30 31
000
FTUS41 KILN 301930 AAB
TAFLCK
TAF AMD
KLCK 301930Z 3020/0118 20012G20KT P6SM BKN015
     FM302100 22012KT P6SM VCSH SCT025 BKN035
      TEMPO 3021/3023 BKN025
     FM302300 25008KT P6SM BKN035
     FM010400 24008KT P6SM OVC025
     FM011500 25012G20KT P6SM BKN025=

USA.gov is the U.S. government's official web portal to all federal, state and local government web resources and services.